sensor_id;sensor_type;location;lat;lon;timestamp;P1;durP1;ratioP1;P2;durP2;ratioP2
994;SDS011;486;48.726;8.964;2022-11-15T08:53:07;4.53;;;4.13;;
994;SDS011;486;48.726;8.964;2022-11-15T08:55:55;5.30;;;4.80;;
994;SDS011;486;48.726;8.964;2022-11-15T08:58:43;5.10;;;4.60;;
994;SDS011;486;48.726;8.964;2022-11-15T09:01:30;4.87;;;4.47;;
994;SDS011;486;48.726;8.964;2022-11-15T09:04:18;5.13;;;4.23;;
994;SDS011;486;48.726;8.964;2022-11-15T09:07:05;4.63;;;4.20;;
994;SDS011;486;48.726;8.964;2022-11-15T09:09:55;10.37;;;5.43;;
994;SDS011;486;48.726;8.964;2022-11-15T09:12:43;4.67;;;4.27;;
994;SDS011;486;48.726;8.964;2022-11-15T09:15:32;5.20;;;4.20;;
994;SDS011;486;48.726;8.964;2022-11-15T09:18:19;3.90;;;3.53;;
994;SDS011;486;48.726;8.964;2022-11-15T09:21:08;6.53;;;5.33;;
994;SDS011;486;48.726;8.964;2022-11-15T09:23:56;4.80;;;4.00;;
994;SDS011;486;48.726;8.964;2022-11-15T09:26:47;5.13;;;4.10;;
994;SDS011;486;48.726;8.964;2022-11-15T09:29:37;4.30;;;3.90;;
994;SDS011;486;48.726;8.964;2022-11-15T09:32:27;6.20;;;4.60;;
994;SDS011;486;48.726;8.964;2022-11-15T09:35:15;4.23;;;3.83;;
994;SDS011;486;48.726;8.964;2022-11-15T09:38:03;5.10;;;3.67;;
994;SDS011;486;48.726;8.964;2022-11-15T09:40:53;4.50;;;4.10;;
994;SDS011;486;48.726;8.964;2022-11-15T09:44:06;6.10;;;4.37;;
994;SDS011;486;48.726;8.964;2022-11-15T09:47:25;4.00;;;3.70;;
994;SDS011;486;48.726;8.964;2022-11-15T09:50:41;5.17;;;3.67;;
994;SDS011;486;48.726;8.964;2022-11-15T09:53:14;4.70;;;4.20;;
994;SDS011;486;48.726;8.964;2022-11-15T09:55:53;4.00;;;3.70;;
994;SDS011;486;48.726;8.964;2022-11-15T09:58:30;4.10;;;3.80;;
994;SDS011;486;48.726;8.964;2022-11-15T10:01:08;4.87;;;4.47;;
994;SDS011;486;48.726;8.964;2022-11-15T10:03:45;3.77;;;3.47;;
994;SDS011;486;48.726;8.964;2022-11-15T10:06:17;4.10;;;3.80;;
994;SDS011;486;48.726;8.964;2022-11-15T10:08:55;3.83;;;3.60;;
994;SDS011;486;48.726;8.964;2022-11-15T10:11:29;5.27;;;4.80;;
994;SDS011;486;48.726;8.964;2022-11-15T10:14:02;4.40;;;4.10;;
994;SDS011;486;48.726;8.964;2022-11-15T10:20:05;4.43;;;4.10;;
994;SDS011;486;48.726;8.964;2022-11-15T10:22:44;4.60;;;4.17;;
994;SDS011;486;48.726;8.964;2022-11-15T10:25:17;5.20;;;4.80;;
994;SDS011;486;48.726;8.964;2022-11-15T10:27:54;4.90;;;4.43;;
994;SDS011;486;48.726;8.964;2022-11-15T10:30:30;4.17;;;3.87;;
994;SDS011;486;48.726;8.964;2022-11-15T10:33:13;5.00;;;4.00;;
994;SDS011;486;48.726;8.964;2022-11-15T10:38:54;4.07;;;3.77;;
994;SDS011;486;48.726;8.964;2022-11-15T10:41:32;4.20;;;3.90;;
994;SDS011;486;48.726;8.964;2022-11-15T10:44:17;4.40;;;4.00;;
994;SDS011;486;48.726;8.964;2022-11-15T10:47:03;4.37;;;4.07;;
994;SDS011;486;48.726;8.964;2022-11-15T10:49:58;4.67;;;3.90;;
994;SDS011;486;48.726;8.964;2022-11-15T10:52:31;4.53;;;4.10;;
994;SDS011;486;48.726;8.964;2022-11-15T10:55:23;3.40;;;3.17;;
994;SDS011;486;48.726;8.964;2022-11-15T10:57:55;3.33;;;3.13;;
994;SDS011;486;48.726;8.964;2022-11-15T11:00:35;3.63;;;3.27;;
994;SDS011;486;48.726;8.964;2022-11-15T11:03:21;3.50;;;3.20;;
994;SDS011;486;48.726;8.964;2022-11-15T11:06:07;4.20;;;3.90;;
994;SDS011;486;48.726;8.964;2022-11-15T11:08:39;4.20;;;3.80;;
994;SDS011;486;48.726;8.964;2022-11-15T11:11:08;4.57;;;3.90;;
994;SDS011;486;48.726;8.964;2022-11-15T11:13:38;4.00;;;3.60;;
994;SDS011;486;48.726;8.964;2022-11-15T11:16:23;3.60;;;3.30;;
994;SDS011;486;48.726;8.964;2022-11-15T11:19:15;3.50;;;3.20;;
994;SDS011;486;48.726;8.964;2022-11-15T11:22:09;3.60;;;3.33;;
994;SDS011;486;48.726;8.964;2022-11-15T11:24:50;3.87;;;2.97;;
994;SDS011;486;48.726;8.964;2022-11-15T11:27:35;3.23;;;3.03;;
994;SDS011;486;48.726;8.964;2022-11-15T11:30:14;3.43;;;3.20;;
994;SDS011;486;48.726;8.964;2022-11-15T11:32:50;3.67;;;3.37;;
994;SDS011;486;48.726;8.964;2022-11-15T11:35:41;3.43;;;3.10;;
994;SDS011;486;48.726;8.964;2022-11-15T11:38:41;3.00;;;2.80;;
994;SDS011;486;48.726;8.964;2022-11-15T11:41:23;4.40;;;3.10;;
994;SDS011;486;48.726;8.964;2022-11-15T11:44:16;3.17;;;2.87;;
994;SDS011;486;48.726;8.964;2022-11-15T11:46:56;5.00;;;3.23;;
994;SDS011;486;48.726;8.964;2022-11-15T11:49:30;3.03;;;2.83;;
994;SDS011;486;48.726;8.964;2022-11-15T11:52:12;7.50;;;3.23;;
994;SDS011;486;48.726;8.964;2022-11-15T11:54:56;3.70;;;3.10;;
994;SDS011;486;48.726;8.964;2022-11-15T11:57:33;2.90;;;2.70;;
994;SDS011;486;48.726;8.964;2022-11-15T12:00:14;4.23;;;3.23;;
994;SDS011;486;48.726;8.964;2022-11-15T12:02:50;4.87;;;3.57;;
994;SDS011;486;48.726;8.964;2022-11-15T12:05:32;3.23;;;2.97;;
994;SDS011;486;48.726;8.964;2022-11-15T12:08:14;4.80;;;3.37;;
994;SDS011;486;48.726;8.964;2022-11-15T12:11:00;3.20;;;3.00;;
994;SDS011;486;48.726;8.964;2022-11-15T12:13:36;3.40;;;3.03;;
994;SDS011;486;48.726;8.964;2022-11-15T12:16:10;3.37;;;3.07;;
994;SDS011;486;48.726;8.964;2022-11-15T12:18:44;4.20;;;3.90;;
994;SDS011;486;48.726;8.964;2022-11-15T12:21:19;3.87;;;3.50;;
994;SDS011;486;48.726;8.964;2022-11-15T12:24:00;3.73;;;3.50;;
994;SDS011;486;48.726;8.964;2022-11-15T12:26:38;3.33;;;3.13;;
994;SDS011;486;48.726;8.964;2022-11-15T12:29:15;3.60;;;3.30;;
994;SDS011;486;48.726;8.964;2022-11-15T12:31:49;3.70;;;3.30;;
994;SDS011;486;48.726;8.964;2022-11-15T12:34:35;3.73;;;2.60;;
994;SDS011;486;48.726;8.964;2022-11-15T12:40:17;3.67;;;3.37;;
994;SDS011;486;48.726;8.964;2022-11-15T12:43:10;3.70;;;3.40;;
994;SDS011;486;48.726;8.964;2022-11-15T12:46:10;5.83;;;4.70;;
994;SDS011;486;48.726;8.964;2022-11-15T12:49:41;3.70;;;3.40;;
994;SDS011;486;48.726;8.964;2022-11-15T12:52:15;3.47;;;3.17;;
994;SDS011;486;48.726;8.964;2022-11-15T12:54:51;4.17;;;3.60;;
994;SDS011;486;48.726;8.964;2022-11-15T12:57:56;4.63;;;4.33;;
994;SDS011;486;48.726;8.964;2022-11-15T13:00:55;4.60;;;3.70;;
994;SDS011;486;48.726;8.964;2022-11-15T13:03:25;4.10;;;3.87;;
994;SDS011;486;48.726;8.964;2022-11-15T13:06:00;5.40;;;3.07;;
994;SDS011;486;48.726;8.964;2022-11-15T13:08:42;4.90;;;3.47;;
994;SDS011;486;48.726;8.964;2022-11-15T13:17:30;3.93;;;3.63;;
994;SDS011;486;48.726;8.964;2022-11-15T13:20:16;5.63;;;3.47;;
994;SDS011;486;48.726;8.964;2022-11-15T13:22:52;6.77;;;3.13;;
994;SDS011;486;48.726;8.964;2022-11-15T13:25:40;3.70;;;3.40;;
994;SDS011;486;48.726;8.964;2022-11-15T13:28:42;7.70;;;4.30;;
994;SDS011;486;48.726;8.964;2022-11-15T13:31:19;2.70;;;2.50;;
994;SDS011;486;48.726;8.964;2022-11-15T13:33:57;3.60;;;3.30;;
994;SDS011;486;48.726;8.964;2022-11-15T13:36:29;3.90;;;3.50;;
994;SDS011;486;48.726;8.964;2022-11-15T13:39:04;3.47;;;3.17;;
994;SDS011;486;48.726;8.964;2022-11-15T13:41:44;5.80;;;3.50;;
994;SDS011;486;48.726;8.964;2022-11-15T13:44:19;3.30;;;3.00;;
994;SDS011;486;48.726;8.964;2022-11-15T13:46:59;3.97;;;3.63;;
994;SDS011;486;48.726;8.964;2022-11-15T13:49:33;4.30;;;4.00;;
994;SDS011;486;48.726;8.964;2022-11-15T13:52:04;7.57;;;6.60;;
994;SDS011;486;48.726;8.964;2022-11-15T13:54:42;3.57;;;3.27;;
994;SDS011;486;48.726;8.964;2022-11-15T13:57:14;4.70;;;4.30;;
994;SDS011;486;48.726;8.964;2022-11-15T13:59:49;4.73;;;3.90;;
994;SDS011;486;48.726;8.964;2022-11-15T14:02:21;4.43;;;4.03;;
994;SDS011;486;48.726;8.964;2022-11-15T14:04:55;3.77;;;3.23;;
994;SDS011;486;48.726;8.964;2022-11-15T14:07:28;4.93;;;4.30;;
994;SDS011;486;48.726;8.964;2022-11-15T14:12:53;3.30;;;3.00;;
994;SDS011;486;48.726;8.964;2022-11-15T14:15:27;3.80;;;3.30;;
994;SDS011;486;48.726;8.964;2022-11-15T14:17:59;3.27;;;3.00;;
994;SDS011;486;48.726;8.964;2022-11-15T14:20:31;3.20;;;2.90;;
994;SDS011;486;48.726;8.964;2022-11-15T14:23:04;3.27;;;2.97;;
994;SDS011;486;48.726;8.964;2022-11-15T14:25:54;3.73;;;2.83;;
994;SDS011;486;48.726;8.964;2022-11-15T14:28:29;3.00;;;2.80;;
994;SDS011;486;48.726;8.964;2022-11-15T14:31:04;3.10;;;2.90;;
994;SDS011;486;48.726;8.964;2022-11-15T14:33:40;4.30;;;3.60;;
994;SDS011;486;48.726;8.964;2022-11-15T14:36:11;3.30;;;3.00;;
994;SDS011;486;48.726;8.964;2022-11-15T14:38:42;2.90;;;2.67;;
994;SDS011;486;48.726;8.964;2022-11-15T14:41:19;4.27;;;3.37;;
994;SDS011;486;48.726;8.964;2022-11-15T14:43:51;3.10;;;2.90;;
994;SDS011;486;48.726;8.964;2022-11-15T14:46:21;2.83;;;2.63;;
994;SDS011;486;48.726;8.964;2022-11-15T14:48:50;4.90;;;3.43;;
994;SDS011;486;48.726;8.964;2022-11-15T14:51:19;3.33;;;2.83;;
994;SDS011;486;48.726;8.964;2022-11-15T14:53:48;3.47;;;3.17;;
994;SDS011;486;48.726;8.964;2022-11-15T14:56:20;3.60;;;3.27;;
994;SDS011;486;48.726;8.964;2022-11-15T14:58:49;3.00;;;2.80;;
994;SDS011;486;48.726;8.964;2022-11-15T15:01:21;3.53;;;3.30;;
994;SDS011;486;48.726;8.964;2022-11-15T15:03:52;3.20;;;2.87;;
994;SDS011;486;48.726;8.964;2022-11-15T15:06:23;3.30;;;2.87;;
994;SDS011;486;48.726;8.964;2022-11-15T15:08:52;3.77;;;3.47;;
994;SDS011;486;48.726;8.964;2022-11-15T15:11:25;2.90;;;2.70;;
994;SDS011;486;48.726;8.964;2022-11-15T15:13:56;3.43;;;3.13;;
994;SDS011;486;48.726;8.964;2022-11-15T15:16:26;3.20;;;3.00;;
994;SDS011;486;48.726;8.964;2022-11-15T15:18:55;5.70;;;3.20;;
994;SDS011;486;48.726;8.964;2022-11-15T15:21:24;3.30;;;2.93;;
994;SDS011;486;48.726;8.964;2022-11-15T15:23:56;4.03;;;3.60;;
994;SDS011;486;48.726;8.964;2022-11-15T15:26:28;3.43;;;3.13;;
994;SDS011;486;48.726;8.964;2022-11-15T15:28:58;4.37;;;3.27;;
994;SDS011;486;48.726;8.964;2022-11-15T15:31:27;4.90;;;3.80;;
994;SDS011;486;48.726;8.964;2022-11-15T15:33:57;5.17;;;4.20;;
994;SDS011;486;48.726;8.964;2022-11-15T15:36:26;9.90;;;6.87;;
994;SDS011;486;48.726;8.964;2022-11-15T15:38:55;7.57;;;6.37;;
994;SDS011;486;48.726;8.964;2022-11-15T15:41:24;15.33;;;9.03;;
994;SDS011;486;48.726;8.964;2022-11-15T15:43:56;16.77;;;11.40;;
994;SDS011;486;48.726;8.964;2022-11-15T15:46:25;10.10;;;7.87;;
994;SDS011;486;48.726;8.964;2022-11-15T15:48:54;10.27;;;7.80;;
994;SDS011;486;48.726;8.964;2022-11-15T15:51:23;6.43;;;5.47;;
994;SDS011;486;48.726;8.964;2022-11-15T15:53:52;4.80;;;4.40;;
994;SDS011;486;48.726;8.964;2022-11-15T15:56:22;5.00;;;4.40;;
994;SDS011;486;48.726;8.964;2022-11-15T15:58:53;6.40;;;5.80;;
994;SDS011;486;48.726;8.964;2022-11-15T16:01:22;7.00;;;6.00;;
994;SDS011;486;48.726;8.964;2022-11-15T16:03:51;6.07;;;5.47;;
994;SDS011;486;48.726;8.964;2022-11-15T16:06:28;8.60;;;6.13;;
994;SDS011;486;48.726;8.964;2022-11-15T16:09:04;5.33;;;4.80;;
994;SDS011;486;48.726;8.964;2022-11-15T16:11:33;19.93;;;18.00;;
994;SDS011;486;48.726;8.964;2022-11-15T16:14:05;5.80;;;5.30;;
994;SDS011;486;48.726;8.964;2022-11-15T16:16:35;6.17;;;5.50;;
994;SDS011;486;48.726;8.964;2022-11-15T16:19:04;7.13;;;6.37;;
994;SDS011;486;48.726;8.964;2022-11-15T16:21:33;8.97;;;7.80;;
994;SDS011;486;48.726;8.964;2022-11-15T16:24:02;8.80;;;7.50;;
994;SDS011;486;48.726;8.964;2022-11-15T16:26:32;7.87;;;7.17;;
994;SDS011;486;48.726;8.964;2022-11-15T16:29:05;8.03;;;7.30;;
994;SDS011;486;48.726;8.964;2022-11-15T16:31:36;9.93;;;7.33;;
994;SDS011;486;48.726;8.964;2022-11-15T16:34:05;7.67;;;6.83;;
994;SDS011;486;48.726;8.964;2022-11-15T16:36:34;9.57;;;8.77;;
994;SDS011;486;48.726;8.964;2022-11-15T16:39:03;17.30;;;11.90;;
994;SDS011;486;48.726;8.964;2022-11-15T16:41:32;20.43;;;15.13;;
994;SDS011;486;48.726;8.964;2022-11-15T16:44:01;17.83;;;13.20;;
994;SDS011;486;48.726;8.964;2022-11-15T16:49:08;11.30;;;10.10;;
994;SDS011;486;48.726;8.964;2022-11-15T16:51:41;6.97;;;6.37;;
994;SDS011;486;48.726;8.964;2022-11-15T16:54:10;9.23;;;7.20;;
994;SDS011;486;48.726;8.964;2022-11-15T16:56:40;9.10;;;8.30;;
994;SDS011;486;48.726;8.964;2022-11-15T16:59:13;7.87;;;7.13;;
994;SDS011;486;48.726;8.964;2022-11-15T17:01:45;7.97;;;7.17;;
994;SDS011;486;48.726;8.964;2022-11-15T17:04:15;8.97;;;8.27;;
994;SDS011;486;48.726;8.964;2022-11-15T17:06:47;7.30;;;6.80;;
994;SDS011;486;48.726;8.964;2022-11-15T17:09:18;6.03;;;5.43;;
994;SDS011;486;48.726;8.964;2022-11-15T17:11:48;6.70;;;6.20;;
994;SDS011;486;48.726;8.964;2022-11-15T17:14:20;5.10;;;4.70;;
994;SDS011;486;48.726;8.964;2022-11-15T17:16:50;4.70;;;4.30;;
994;SDS011;486;48.726;8.964;2022-11-15T17:19:19;8.53;;;7.40;;
994;SDS011;486;48.726;8.964;2022-11-15T17:21:49;6.77;;;6.27;;
994;SDS011;486;48.726;8.964;2022-11-15T17:24:18;6.47;;;5.97;;
994;SDS011;486;48.726;8.964;2022-11-15T17:26:48;7.20;;;6.60;;
994;SDS011;486;48.726;8.964;2022-11-15T17:29:17;8.90;;;8.00;;
994;SDS011;486;48.726;8.964;2022-11-15T17:31:48;11.80;;;10.80;;
994;SDS011;486;48.726;8.964;2022-11-15T17:34:17;10.43;;;9.53;;
994;SDS011;486;48.726;8.964;2022-11-15T17:36:47;9.33;;;8.67;;
994;SDS011;486;48.726;8.964;2022-11-15T17:39:16;8.80;;;8.00;;
994;SDS011;486;48.726;8.964;2022-11-15T17:41:47;10.93;;;9.90;;
994;SDS011;486;48.726;8.964;2022-11-15T17:44:17;9.40;;;8.60;;
994;SDS011;486;48.726;8.964;2022-11-15T17:46:48;9.87;;;8.97;;
994;SDS011;486;48.726;8.964;2022-11-15T17:49:17;10.10;;;9.30;;
994;SDS011;486;48.726;8.964;2022-11-15T17:51:46;12.90;;;11.60;;
994;SDS011;486;48.726;8.964;2022-11-15T17:54:15;16.87;;;15.37;;
994;SDS011;486;48.726;8.964;2022-11-15T17:56:44;14.87;;;13.57;;
994;SDS011;486;48.726;8.964;2022-11-15T17:59:13;14.30;;;12.80;;
994;SDS011;486;48.726;8.964;2022-11-15T18:01:42;16.50;;;14.03;;
994;SDS011;486;48.726;8.964;2022-11-15T18:04:14;11.13;;;10.13;;
994;SDS011;486;48.726;8.964;2022-11-15T18:06:43;8.50;;;7.80;;
994;SDS011;486;48.726;8.964;2022-11-15T18:09:12;9.57;;;8.67;;
994;SDS011;486;48.726;8.964;2022-11-15T18:11:41;8.40;;;7.67;;
994;SDS011;486;48.726;8.964;2022-11-15T18:14:14;6.83;;;6.30;;
994;SDS011;486;48.726;8.964;2022-11-15T18:16:44;8.83;;;8.13;;
994;SDS011;486;48.726;8.964;2022-11-15T18:19:16;8.50;;;7.67;;
994;SDS011;486;48.726;8.964;2022-11-15T18:21:45;12.30;;;10.77;;
994;SDS011;486;48.726;8.964;2022-11-15T18:24:23;9.17;;;8.37;;
994;SDS011;486;48.726;8.964;2022-11-15T18:26:54;9.80;;;7.67;;
994;SDS011;486;48.726;8.964;2022-11-15T18:29:23;8.83;;;8.03;;
994;SDS011;486;48.726;8.964;2022-11-15T18:31:52;14.33;;;10.27;;
994;SDS011;486;48.726;8.964;2022-11-15T18:34:25;11.37;;;10.43;;
994;SDS011;486;48.726;8.964;2022-11-15T18:36:57;9.27;;;8.33;;
994;SDS011;486;48.726;8.964;2022-11-15T18:39:27;11.50;;;10.40;;
994;SDS011;486;48.726;8.964;2022-11-15T18:41:57;10.30;;;9.30;;
994;SDS011;486;48.726;8.964;2022-11-15T18:44:26;9.70;;;8.80;;
994;SDS011;486;48.726;8.964;2022-11-15T18:46:56;11.23;;;10.30;;
994;SDS011;486;48.726;8.964;2022-11-15T18:49:27;11.90;;;9.73;;
994;SDS011;486;48.726;8.964;2022-11-15T18:51:56;13.93;;;12.63;;
994;SDS011;486;48.726;8.964;2022-11-15T18:54:25;15.50;;;14.00;;
994;SDS011;486;48.726;8.964;2022-11-15T18:56:54;19.13;;;17.73;;
994;SDS011;486;48.726;8.964;2022-11-15T18:59:23;12.43;;;11.43;;
994;SDS011;486;48.726;8.964;2022-11-15T19:01:53;9.77;;;8.67;;
994;SDS011;486;48.726;8.964;2022-11-15T19:04:22;9.90;;;9.00;;
994;SDS011;486;48.726;8.964;2022-11-15T19:06:53;12.13;;;10.90;;
994;SDS011;486;48.726;8.964;2022-11-15T19:09:22;10.37;;;9.37;;
994;SDS011;486;48.726;8.964;2022-11-15T19:11:57;9.70;;;8.70;;
994;SDS011;486;48.726;8.964;2022-11-15T19:14:26;11.33;;;10.10;;
994;SDS011;486;48.726;8.964;2022-11-15T19:16:55;11.30;;;9.77;;
994;SDS011;486;48.726;8.964;2022-11-15T19:19:24;11.23;;;10.13;;
994;SDS011;486;48.726;8.964;2022-11-15T19:21:57;12.00;;;11.00;;
994;SDS011;486;48.726;8.964;2022-11-15T19:24:27;10.83;;;9.73;;
994;SDS011;486;48.726;8.964;2022-11-15T19:26:57;9.90;;;9.03;;
994;SDS011;486;48.726;8.964;2022-11-15T19:29:26;10.23;;;8.67;;
994;SDS011;486;48.726;8.964;2022-11-15T19:31:55;9.60;;;8.73;;
994;SDS011;486;48.726;8.964;2022-11-15T19:34:23;9.90;;;9.00;;
994;SDS011;486;48.726;8.964;2022-11-15T19:36:52;10.40;;;9.40;;
994;SDS011;486;48.726;8.964;2022-11-15T19:39:24;9.93;;;9.00;;
994;SDS011;486;48.726;8.964;2022-11-15T19:41:53;9.27;;;8.37;;
994;SDS011;486;48.726;8.964;2022-11-15T19:44:22;11.10;;;10.10;;
994;SDS011;486;48.726;8.964;2022-11-15T19:46:51;10.63;;;9.67;;
994;SDS011;486;48.726;8.964;2022-11-15T19:49:20;10.00;;;9.10;;
994;SDS011;486;48.726;8.964;2022-11-15T19:51:49;11.73;;;10.53;;
994;SDS011;486;48.726;8.964;2022-11-15T19:54:18;12.83;;;10.70;;
994;SDS011;486;48.726;8.964;2022-11-15T19:56:49;12.60;;;11.43;;
994;SDS011;486;48.726;8.964;2022-11-15T19:59:18;17.47;;;15.60;;
994;SDS011;486;48.726;8.964;2022-11-15T20:01:47;15.33;;;14.00;;
994;SDS011;486;48.726;8.964;2022-11-15T20:04:16;11.10;;;10.10;;
994;SDS011;486;48.726;8.964;2022-11-15T20:06:46;14.57;;;13.07;;
994;SDS011;486;48.726;8.964;2022-11-15T20:09:15;20.70;;;18.97;;
994;SDS011;486;48.726;8.964;2022-11-15T20:11:44;27.60;;;25.00;;
994;SDS011;486;48.726;8.964;2022-11-15T20:14:16;35.37;;;32.00;;
994;SDS011;486;48.726;8.964;2022-11-15T20:16:45;42.37;;;38.10;;
994;SDS011;486;48.726;8.964;2022-11-15T20:19:14;27.53;;;25.10;;
994;SDS011;486;48.726;8.964;2022-11-15T20:21:43;32.77;;;30.27;;
994;SDS011;486;48.726;8.964;2022-11-15T20:24:12;20.30;;;18.60;;
994;SDS011;486;48.726;8.964;2022-11-15T20:26:41;21.47;;;19.27;;
994;SDS011;486;48.726;8.964;2022-11-15T20:29:11;15.77;;;14.23;;
994;SDS011;486;48.726;8.964;2022-11-15T20:31:42;17.23;;;15.57;;
994;SDS011;486;48.726;8.964;2022-11-15T20:34:11;16.67;;;15.17;;
994;SDS011;486;48.726;8.964;2022-11-15T20:36:40;16.23;;;14.83;;
994;SDS011;486;48.726;8.964;2022-11-15T20:39:09;13.90;;;12.60;;
994;SDS011;486;48.726;8.964;2022-11-15T20:41:38;13.40;;;12.20;;
994;SDS011;486;48.726;8.964;2022-11-15T20:44:07;11.57;;;10.53;;
994;SDS011;486;48.726;8.964;2022-11-15T20:46:36;12.67;;;11.57;;
994;SDS011;486;48.726;8.964;2022-11-15T20:49:08;12.90;;;11.70;;
994;SDS011;486;48.726;8.964;2022-11-15T20:51:37;11.87;;;10.90;;
994;SDS011;486;48.726;8.964;2022-11-15T20:54:06;12.30;;;11.20;;
994;SDS011;486;48.726;8.964;2022-11-15T20:56:35;11.53;;;10.50;;
994;SDS011;486;48.726;8.964;2022-11-15T20:59:04;11.60;;;10.60;;
994;SDS011;486;48.726;8.964;2022-11-15T21:01:33;12.00;;;10.87;;
994;SDS011;486;48.726;8.964;2022-11-15T21:04:02;12.23;;;11.13;;
994;SDS011;486;48.726;8.964;2022-11-15T21:06:34;12.23;;;11.03;;
994;SDS011;486;48.726;8.964;2022-11-15T21:09:03;13.10;;;11.90;;
994;SDS011;486;48.726;8.964;2022-11-15T21:11:45;12.33;;;11.20;;
994;SDS011;486;48.726;8.964;2022-11-15T21:14:26;13.83;;;12.20;;
994;SDS011;486;48.726;8.964;2022-11-15T21:16:55;13.20;;;12.10;;
994;SDS011;486;48.726;8.964;2022-11-15T21:19:24;12.50;;;11.40;;
994;SDS011;486;48.726;8.964;2022-11-15T21:21:56;12.53;;;11.07;;
994;SDS011;486;48.726;8.964;2022-11-15T21:24:25;12.50;;;11.30;;
994;SDS011;486;48.726;8.964;2022-11-15T21:26:54;12.97;;;11.67;;
994;SDS011;486;48.726;8.964;2022-11-15T21:29:23;13.67;;;12.37;;
994;SDS011;486;48.726;8.964;2022-11-15T21:31:52;12.90;;;10.93;;
994;SDS011;486;48.726;8.964;2022-11-15T21:34:21;20.03;;;18.10;;
994;SDS011;486;48.726;8.964;2022-11-15T21:36:50;26.40;;;24.03;;
994;SDS011;486;48.726;8.964;2022-11-15T21:39:22;20.37;;;18.47;;
994;SDS011;486;48.726;8.964;2022-11-15T21:41:51;17.77;;;16.10;;
994;SDS011;486;48.726;8.964;2022-11-15T21:44:20;16.93;;;15.33;;
994;SDS011;486;48.726;8.964;2022-11-15T21:46:49;19.20;;;17.53;;
994;SDS011;486;48.726;8.964;2022-11-15T21:49:18;15.77;;;14.10;;
994;SDS011;486;48.726;8.964;2022-11-15T21:51:48;14.43;;;12.93;;
994;SDS011;486;48.726;8.964;2022-11-15T21:54:16;12.47;;;11.40;;
994;SDS011;486;48.726;8.964;2022-11-15T21:56:48;13.60;;;12.07;;
994;SDS011;486;48.726;8.964;2022-11-15T21:59:17;11.77;;;10.77;;
994;SDS011;486;48.726;8.964;2022-11-15T22:01:46;11.87;;;10.77;;
994;SDS011;486;48.726;8.964;2022-11-15T22:04:27;12.70;;;11.43;;
994;SDS011;486;48.726;8.964;2022-11-15T22:06:56;13.40;;;12.00;;
994;SDS011;486;48.726;8.964;2022-11-15T22:09:25;11.70;;;10.50;;
994;SDS011;486;48.726;8.964;2022-11-15T22:11:57;12.27;;;11.07;;
994;SDS011;486;48.726;8.964;2022-11-15T22:14:26;16.53;;;10.60;;
994;SDS011;486;48.726;8.964;2022-11-15T22:16:55;14.30;;;12.30;;
994;SDS011;486;48.726;8.964;2022-11-15T22:19:24;20.37;;;15.03;;
994;SDS011;486;48.726;8.964;2022-11-15T22:21:53;15.90;;;14.30;;
994;SDS011;486;48.726;8.964;2022-11-15T22:24:22;14.23;;;11.90;;
994;SDS011;486;48.726;8.964;2022-11-15T22:26:51;15.47;;;14.07;;
994;SDS011;486;48.726;8.964;2022-11-15T22:29:23;16.00;;;14.47;;
994;SDS011;486;48.726;8.964;2022-11-15T22:31:52;13.50;;;12.20;;
994;SDS011;486;48.726;8.964;2022-11-15T22:34:21;16.63;;;15.07;;
994;SDS011;486;48.726;8.964;2022-11-15T22:36:50;10.07;;;9.17;;
994;SDS011;486;48.726;8.964;2022-11-15T22:39:19;10.70;;;9.70;;
994;SDS011;486;48.726;8.964;2022-11-15T22:41:48;9.83;;;8.90;;
994;SDS011;486;48.726;8.964;2022-11-15T22:44:17;10.60;;;9.50;;
994;SDS011;486;48.726;8.964;2022-11-15T22:46:49;10.23;;;9.23;;
994;SDS011;486;48.726;8.964;2022-11-15T22:49:18;11.33;;;10.23;;
994;SDS011;486;48.726;8.964;2022-11-15T22:51:47;12.57;;;11.37;;
994;SDS011;486;48.726;8.964;2022-11-15T22:54:16;11.43;;;10.33;;
994;SDS011;486;48.726;8.964;2022-11-15T22:56:45;12.47;;;11.27;;
994;SDS011;486;48.726;8.964;2022-11-15T22:59:14;13.23;;;11.73;;
994;SDS011;486;48.726;8.964;2022-11-15T23:01:44;13.00;;;11.80;;
994;SDS011;486;48.726;8.964;2022-11-15T23:04:17;14.57;;;13.17;;
994;SDS011;486;48.726;8.964;2022-11-15T23:06:47;14.03;;;12.73;;
994;SDS011;486;48.726;8.964;2022-11-15T23:09:16;12.73;;;11.53;;
994;SDS011;486;48.726;8.964;2022-11-15T23:11:45;15.20;;;12.47;;
994;SDS011;486;48.726;8.964;2022-11-15T23:14:27;16.20;;;13.27;;
994;SDS011;486;48.726;8.964;2022-11-15T23:16:56;15.40;;;12.50;;
994;SDS011;486;48.726;8.964;2022-11-15T23:19:27;19.13;;;14.07;;
994;SDS011;486;48.726;8.964;2022-11-15T23:21:57;15.10;;;13.43;;
994;SDS011;486;48.726;8.964;2022-11-15T23:24:38;13.80;;;12.50;;
994;SDS011;486;48.726;8.964;2022-11-15T23:27:07;13.63;;;12.23;;
994;SDS011;486;48.726;8.964;2022-11-15T23:29:39;13.23;;;11.93;;
994;SDS011;486;48.726;8.964;2022-11-15T23:32:21;12.40;;;11.20;;
994;SDS011;486;48.726;8.964;2022-11-15T23:35:05;14.67;;;12.60;;
994;SDS011;486;48.726;8.964;2022-11-15T23:37:35;11.90;;;10.83;;
994;SDS011;486;48.726;8.964;2022-11-15T23:40:05;12.50;;;11.07;;
994;SDS011;486;48.726;8.964;2022-11-15T23:42:35;13.57;;;12.17;;
994;SDS011;486;48.726;8.964;2022-11-15T23:45:05;12.77;;;11.57;;
994;SDS011;486;48.726;8.964;2022-11-15T23:47:34;11.90;;;10.70;;
994;SDS011;486;48.726;8.964;2022-11-15T23:50:06;13.60;;;12.30;;
994;SDS011;486;48.726;8.964;2022-11-15T23:52:36;12.53;;;11.23;;
994;SDS011;486;48.726;8.964;2022-11-15T23:55:05;11.80;;;10.60;;
994;SDS011;486;48.726;8.964;2022-11-15T23:57:35;11.97;;;10.83;;
